sensor_id;sensor_type;location;lat;lon;timestamp;temperature;humidity
44271;DHT22;29963;44.594;11.368;2023-12-04T00:01:15;4.20;99.90
44271;DHT22;29963;44.594;11.368;2023-12-04T00:03:41;4.20;99.90
44271;DHT22;29963;44.594;11.368;2023-12-04T00:06:07;4.10;99.90
44271;DHT22;29963;44.594;11.368;2023-12-04T00:08:33;3.80;99.90
44271;DHT22;29963;44.594;11.368;2023-12-04T00:10:59;3.70;99.90
44271;DHT22;29963;44.594;11.368;2023-12-04T00:13:24;3.70;99.90
44271;DHT22;29963;44.594;11.368;2023-12-04T00:15:50;3.60;99.90
44271;DHT22;29963;44.594;11.368;2023-12-04T00:18:16;3.70;99.90
44271;DHT22;29963;44.594;11.368;2023-12-04T00:20:42;3.70;99.90
44271;DHT22;29963;44.594;11.368;2023-12-04T00:23:07;3.70;99.90
44271;DHT22;29963;44.594;11.368;2023-12-04T00:25:33;3.70;99.90
44271;DHT22;29963;44.594;11.368;2023-12-04T00:27:59;3.70;99.90
44271;DHT22;29963;44.594;11.368;2023-12-04T00:30:24;3.70;99.90
44271;DHT22;29963;44.594;11.368;2023-12-04T00:32:50;3.80;99.90
44271;DHT22;29963;44.594;11.368;2023-12-04T00:35:16;3.80;99.90
44271;DHT22;29963;44.594;11.368;2023-12-04T00:37:42;3.80;99.90
44271;DHT22;29963;44.594;11.368;2023-12-04T00:40:08;3.90;99.90
44271;DHT22;29963;44.594;11.368;2023-12-04T00:42:33;3.90;99.90
44271;DHT22;29963;44.594;11.368;2023-12-04T00:44:59;3.90;99.90
44271;DHT22;29963;44.594;11.368;2023-12-04T00:47:25;3.80;99.90
44271;DHT22;29963;44.594;11.368;2023-12-04T00:49:50;3.60;99.90
44271;DHT22;29963;44.594;11.368;2023-12-04T00:52:16;3.50;99.90
44271;DHT22;29963;44.594;11.368;2023-12-04T00:54:42;3.30;99.90
44271;DHT22;29963;44.594;11.368;2023-12-04T00:57:08;3.10;99.90
44271;DHT22;29963;44.594;11.368;2023-12-04T00:59:34;3.10;99.90
44271;DHT22;29963;44.594;11.368;2023-12-04T01:02:00;3.00;99.90
44271;DHT22;29963;44.594;11.368;2023-12-04T01:04:26;3.10;99.90
44271;DHT22;29963;44.594;11.368;2023-12-04T01:06:52;3.20;99.90
44271;DHT22;29963;44.594;11.368;2023-12-04T01:09:18;3.30;99.90
44271;DHT22;29963;44.594;11.368;2023-12-04T01:11:52;3.30;99.90
44271;DHT22;29963;44.594;11.368;2023-12-04T01:14:19;3.30;99.90
44271;DHT22;29963;44.594;11.368;2023-12-04T01:16:45;3.40;99.90
44271;DHT22;29963;44.594;11.368;2023-12-04T01:19:10;3.40;99.90
44271;DHT22;29963;44.594;11.368;2023-12-04T01:21:36;3.30;99.90
44271;DHT22;29963;44.594;11.368;2023-12-04T01:24:02;3.30;99.90
44271;DHT22;29963;44.594;11.368;2023-12-04T01:26:28;3.20;99.90
44271;DHT22;29963;44.594;11.368;2023-12-04T01:28:53;3.30;99.90
44271;DHT22;29963;44.594;11.368;2023-12-04T01:31:19;3.30;99.90
44271;DHT22;29963;44.594;11.368;2023-12-04T01:33:45;3.30;99.90
44271;DHT22;29963;44.594;11.368;2023-12-04T01:36:13;3.30;99.90
44271;DHT22;29963;44.594;11.368;2023-12-04T01:38:39;3.40;99.90
44271;DHT22;29963;44.594;11.368;2023-12-04T01:41:05;3.60;99.90
44271;DHT22;29963;44.594;11.368;2023-12-04T01:43:31;3.70;99.90
44271;DHT22;29963;44.594;11.368;2023-12-04T01:45:57;3.80;99.90
44271;DHT22;29963;44.594;11.368;2023-12-04T01:48:25;3.80;99.90
44271;DHT22;29963;44.594;11.368;2023-12-04T01:50:51;3.90;99.90
44271;DHT22;29963;44.594;11.368;2023-12-04T01:53:17;4.00;99.90
44271;DHT22;29963;44.594;11.368;2023-12-04T01:55:43;4.00;99.90
44271;DHT22;29963;44.594;11.368;2023-12-04T01:58:10;4.00;99.90
44271;DHT22;29963;44.594;11.368;2023-12-04T02:00:39;4.00;99.90
44271;DHT22;29963;44.594;11.368;2023-12-04T02:03:05;4.00;99.90
44271;DHT22;29963;44.594;11.368;2023-12-04T02:05:31;4.00;99.90
44271;DHT22;29963;44.594;11.368;2023-12-04T02:07:59;3.80;99.90
44271;DHT22;29963;44.594;11.368;2023-12-04T02:10:25;3.60;99.90
44271;DHT22;29963;44.594;11.368;2023-12-04T02:12:51;3.50;99.90
44271;DHT22;29963;44.594;11.368;2023-12-04T02:15:17;3.40;99.90
44271;DHT22;29963;44.594;11.368;2023-12-04T02:17:43;3.40;99.90
44271;DHT22;29963;44.594;11.368;2023-12-04T02:20:12;3.40;99.90
44271;DHT22;29963;44.594;11.368;2023-12-04T02:22:38;3.30;99.90
44271;DHT22;29963;44.594;11.368;2023-12-04T02:25:04;3.40;99.90
44271;DHT22;29963;44.594;11.368;2023-12-04T02:27:50;3.60;99.90
44271;DHT22;29963;44.594;11.368;2023-12-04T02:30:18;3.70;99.90
44271;DHT22;29963;44.594;11.368;2023-12-04T02:32:46;3.80;99.90
44271;DHT22;29963;44.594;11.368;2023-12-04T02:35:14;3.80;99.90
44271;DHT22;29963;44.594;11.368;2023-12-04T02:37:42;3.90;99.90
44271;DHT22;29963;44.594;11.368;2023-12-04T02:40:09;4.00;99.90
44271;DHT22;29963;44.594;11.368;2023-12-04T02:42:36;4.00;99.90
44271;DHT22;29963;44.594;11.368;2023-12-04T02:45:01;4.00;99.90
44271;DHT22;29963;44.594;11.368;2023-12-04T02:47:27;4.00;99.90
44271;DHT22;29963;44.594;11.368;2023-12-04T02:49:53;4.00;99.90
44271;DHT22;29963;44.594;11.368;2023-12-04T02:52:18;4.00;99.90
44271;DHT22;29963;44.594;11.368;2023-12-04T02:54:44;4.00;99.90
44271;DHT22;29963;44.594;11.368;2023-12-04T02:57:10;4.00;99.90
44271;DHT22;29963;44.594;11.368;2023-12-04T02:59:35;3.90;99.90
44271;DHT22;29963;44.594;11.368;2023-12-04T03:02:01;3.90;99.90
44271;DHT22;29963;44.594;11.368;2023-12-04T03:04:30;4.00;99.90
44271;DHT22;29963;44.594;11.368;2023-12-04T03:06:56;4.00;99.90
44271;DHT22;29963;44.594;11.368;2023-12-04T03:09:24;3.90;99.90
44271;DHT22;29963;44.594;11.368;2023-12-04T03:11:50;3.80;99.90
44271;DHT22;29963;44.594;11.368;2023-12-04T03:14:16;3.80;99.90
44271;DHT22;29963;44.594;11.368;2023-12-04T03:16:41;3.60;99.90
44271;DHT22;29963;44.594;11.368;2023-12-04T03:19:07;3.50;99.90
44271;DHT22;29963;44.594;11.368;2023-12-04T03:21:33;3.40;99.90
44271;DHT22;29963;44.594;11.368;2023-12-04T03:23:58;3.40;99.90
44271;DHT22;29963;44.594;11.368;2023-12-04T03:26:24;3.40;99.90
44271;DHT22;29963;44.594;11.368;2023-12-04T03:28:50;3.50;99.90
44271;DHT22;29963;44.594;11.368;2023-12-04T03:31:15;3.50;99.90
44271;DHT22;29963;44.594;11.368;2023-12-04T03:33:41;3.50;99.90
44271;DHT22;29963;44.594;11.368;2023-12-04T03:36:07;3.40;99.90
44271;DHT22;29963;44.594;11.368;2023-12-04T03:38:33;3.40;99.90
44271;DHT22;29963;44.594;11.368;2023-12-04T03:41:01;3.40;99.90
44271;DHT22;29963;44.594;11.368;2023-12-04T03:43:27;3.40;99.90
44271;DHT22;29963;44.594;11.368;2023-12-04T03:48:19;3.40;99.90
44271;DHT22;29963;44.594;11.368;2023-12-04T03:50:44;3.40;99.90
44271;DHT22;29963;44.594;11.368;2023-12-04T03:53:10;3.30;99.90
44271;DHT22;29963;44.594;11.368;2023-12-04T03:55:36;3.20;99.90
44271;DHT22;29963;44.594;11.368;2023-12-04T03:58:03;3.10;99.90
44271;DHT22;29963;44.594;11.368;2023-12-04T04:00:28;3.10;99.90
44271;DHT22;29963;44.594;11.368;2023-12-04T04:02:54;3.10;99.90
44271;DHT22;29963;44.594;11.368;2023-12-04T04:05:20;3.20;99.90
44271;DHT22;29963;44.594;11.368;2023-12-04T04:07:45;3.20;99.90
44271;DHT22;29963;44.594;11.368;2023-12-04T04:10:11;3.30;99.90
44271;DHT22;29963;44.594;11.368;2023-12-04T04:12:37;3.20;99.90
44271;DHT22;29963;44.594;11.368;2023-12-04T04:15:03;3.00;99.90
44271;DHT22;29963;44.594;11.368;2023-12-04T04:17:29;2.90;99.90
44271;DHT22;29963;44.594;11.368;2023-12-04T04:19:55;2.90;99.90
44271;DHT22;29963;44.594;11.368;2023-12-04T04:22:21;2.90;99.90
44271;DHT22;29963;44.594;11.368;2023-12-04T04:24:48;2.80;99.90
44271;DHT22;29963;44.594;11.368;2023-12-04T04:27:14;2.80;99.90
44271;DHT22;29963;44.594;11.368;2023-12-04T04:29:39;2.80;99.90
44271;DHT22;29963;44.594;11.368;2023-12-04T04:32:05;2.80;99.90
44271;DHT22;29963;44.594;11.368;2023-12-04T04:34:31;2.80;99.90
44271;DHT22;29963;44.594;11.368;2023-12-04T04:36:57;2.80;99.90
44271;DHT22;29963;44.594;11.368;2023-12-04T04:39:23;2.70;99.90
44271;DHT22;29963;44.594;11.368;2023-12-04T04:41:49;2.60;99.90
44271;DHT22;29963;44.594;11.368;2023-12-04T04:44:14;2.60;99.90
44271;DHT22;29963;44.594;11.368;2023-12-04T04:46:40;2.50;99.90
44271;DHT22;29963;44.594;11.368;2023-12-04T04:49:06;2.50;99.90
44271;DHT22;29963;44.594;11.368;2023-12-04T04:51:33;2.40;99.90
44271;DHT22;29963;44.594;11.368;2023-12-04T04:54:03;2.40;99.90
44271;DHT22;29963;44.594;11.368;2023-12-04T04:56:29;2.30;99.90
44271;DHT22;29963;44.594;11.368;2023-12-04T04:58:55;2.30;99.90
44271;DHT22;29963;44.594;11.368;2023-12-04T05:01:21;2.30;99.90
44271;DHT22;29963;44.594;11.368;2023-12-04T05:03:47;2.40;99.90
44271;DHT22;29963;44.594;11.368;2023-12-04T05:06:13;2.40;99.90
44271;DHT22;29963;44.594;11.368;2023-12-04T05:08:39;2.30;99.90
44271;DHT22;29963;44.594;11.368;2023-12-04T05:11:05;2.40;99.90
44271;DHT22;29963;44.594;11.368;2023-12-04T05:13:31;2.40;99.90
44271;DHT22;29963;44.594;11.368;2023-12-04T05:15:59;2.50;99.90
44271;DHT22;29963;44.594;11.368;2023-12-04T05:18:25;2.40;99.90
44271;DHT22;29963;44.594;11.368;2023-12-04T05:20:51;2.40;99.90
44271;DHT22;29963;44.594;11.368;2023-12-04T05:23:17;2.30;99.90
44271;DHT22;29963;44.594;11.368;2023-12-04T05:25:42;2.40;99.90
44271;DHT22;29963;44.594;11.368;2023-12-04T05:28:08;2.40;99.90
44271;DHT22;29963;44.594;11.368;2023-12-04T05:30:34;2.40;99.90
44271;DHT22;29963;44.594;11.368;2023-12-04T05:33:00;2.30;99.90
44271;DHT22;29963;44.594;11.368;2023-12-04T05:35:25;2.30;99.90
44271;DHT22;29963;44.594;11.368;2023-12-04T05:37:51;2.30;99.90
44271;DHT22;29963;44.594;11.368;2023-12-04T05:40:17;2.30;99.90
44271;DHT22;29963;44.594;11.368;2023-12-04T05:42:42;2.40;99.90
44271;DHT22;29963;44.594;11.368;2023-12-04T05:45:08;2.50;99.90
44271;DHT22;29963;44.594;11.368;2023-12-04T05:47:34;2.50;99.90
44271;DHT22;29963;44.594;11.368;2023-12-04T05:50:00;2.50;99.90
44271;DHT22;29963;44.594;11.368;2023-12-04T05:52:26;2.60;99.90
44271;DHT22;29963;44.594;11.368;2023-12-04T05:54:52;2.60;99.90
44271;DHT22;29963;44.594;11.368;2023-12-04T05:57:17;2.50;99.90
44271;DHT22;29963;44.594;11.368;2023-12-04T05:59:43;2.50;99.90
44271;DHT22;29963;44.594;11.368;2023-12-04T06:02:09;2.50;99.90
44271;DHT22;29963;44.594;11.368;2023-12-04T06:04:35;2.50;99.90
44271;DHT22;29963;44.594;11.368;2023-12-04T06:07:01;2.50;99.90
44271;DHT22;29963;44.594;11.368;2023-12-04T06:09:26;2.50;99.90
44271;DHT22;29963;44.594;11.368;2023-12-04T06:11:52;2.50;99.90
44271;DHT22;29963;44.594;11.368;2023-12-04T06:14:18;2.40;99.90
44271;DHT22;29963;44.594;11.368;2023-12-04T06:16:43;2.40;99.90
44271;DHT22;29963;44.594;11.368;2023-12-04T06:19:09;2.40;99.90
44271;DHT22;29963;44.594;11.368;2023-12-04T06:21:35;2.40;99.90
44271;DHT22;29963;44.594;11.368;2023-12-04T06:28:58;2.40;99.90
44271;DHT22;29963;44.594;11.368;2023-12-04T06:31:24;2.40;99.90
44271;DHT22;29963;44.594;11.368;2023-12-04T06:33:50;2.50;99.90
44271;DHT22;29963;44.594;11.368;2023-12-04T06:36:17;2.50;99.90
44271;DHT22;29963;44.594;11.368;2023-12-04T06:38:47;2.50;99.90
44271;DHT22;29963;44.594;11.368;2023-12-04T06:41:16;2.50;99.90
44271;DHT22;29963;44.594;11.368;2023-12-04T06:43:43;2.40;99.90
44271;DHT22;29963;44.594;11.368;2023-12-04T06:46:09;2.30;99.90
44271;DHT22;29963;44.594;11.368;2023-12-04T06:48:36;2.30;99.90
44271;DHT22;29963;44.594;11.368;2023-12-04T06:51:01;2.00;99.90
44271;DHT22;29963;44.594;11.368;2023-12-04T06:53:27;2.10;99.90
44271;DHT22;29963;44.594;11.368;2023-12-04T06:55:53;1.90;99.90
44271;DHT22;29963;44.594;11.368;2023-12-04T06:58:18;1.80;99.90
44271;DHT22;29963;44.594;11.368;2023-12-04T07:00:44;1.80;99.90
44271;DHT22;29963;44.594;11.368;2023-12-04T07:03:10;1.80;99.90
44271;DHT22;29963;44.594;11.368;2023-12-04T07:05:35;1.90;99.90
44271;DHT22;29963;44.594;11.368;2023-12-04T07:08:01;1.90;99.90
44271;DHT22;29963;44.594;11.368;2023-12-04T07:10:28;2.00;99.90
44271;DHT22;29963;44.594;11.368;2023-12-04T07:12:53;2.00;99.90
44271;DHT22;29963;44.594;11.368;2023-12-04T07:15:19;2.10;99.90
44271;DHT22;29963;44.594;11.368;2023-12-04T07:17:45;2.20;99.90
44271;DHT22;29963;44.594;11.368;2023-12-04T07:20:11;2.20;99.90
44271;DHT22;29963;44.594;11.368;2023-12-04T07:22:37;2.20;99.90
44271;DHT22;29963;44.594;11.368;2023-12-04T07:25:06;2.30;99.90
44271;DHT22;29963;44.594;11.368;2023-12-04T07:27:34;2.30;99.90
44271;DHT22;29963;44.594;11.368;2023-12-04T07:30:00;2.40;99.90
44271;DHT22;29963;44.594;11.368;2023-12-04T07:32:26;2.40;99.90
44271;DHT22;29963;44.594;11.368;2023-12-04T07:34:52;2.50;99.90
44271;DHT22;29963;44.594;11.368;2023-12-04T07:37:17;2.50;99.90
44271;DHT22;29963;44.594;11.368;2023-12-04T07:39:45;2.50;99.90
44271;DHT22;29963;44.594;11.368;2023-12-04T07:42:12;2.50;99.90
44271;DHT22;29963;44.594;11.368;2023-12-04T07:44:37;2.40;99.90
44271;DHT22;29963;44.594;11.368;2023-12-04T07:47:03;2.40;99.90
44271;DHT22;29963;44.594;11.368;2023-12-04T07:49:29;2.40;99.90
44271;DHT22;29963;44.594;11.368;2023-12-04T07:51:55;2.40;99.90
44271;DHT22;29963;44.594;11.368;2023-12-04T07:54:20;2.50;99.90
44271;DHT22;29963;44.594;11.368;2023-12-04T07:56:47;2.50;99.90
44271;DHT22;29963;44.594;11.368;2023-12-04T07:59:13;2.60;99.90
44271;DHT22;29963;44.594;11.368;2023-12-04T08:01:39;2.60;99.90
44271;DHT22;29963;44.594;11.368;2023-12-04T08:04:04;2.60;99.90
44271;DHT22;29963;44.594;11.368;2023-12-04T08:06:30;2.60;99.90
44271;DHT22;29963;44.594;11.368;2023-12-04T08:08:56;2.70;99.90
44271;DHT22;29963;44.594;11.368;2023-12-04T08:11:22;2.60;99.90
44271;DHT22;29963;44.594;11.368;2023-12-04T08:13:48;2.70;99.90
44271;DHT22;29963;44.594;11.368;2023-12-04T08:16:14;2.80;99.90
44271;DHT22;29963;44.594;11.368;2023-12-04T08:18:40;2.80;99.90
44271;DHT22;29963;44.594;11.368;2023-12-04T08:21:06;2.80;99.90
44271;DHT22;29963;44.594;11.368;2023-12-04T08:23:32;2.90;99.90
44271;DHT22;29963;44.594;11.368;2023-12-04T08:26:01;2.90;99.90
44271;DHT22;29963;44.594;11.368;2023-12-04T08:28:26;3.00;99.90
44271;DHT22;29963;44.594;11.368;2023-12-04T08:30:52;3.00;99.90
44271;DHT22;29963;44.594;11.368;2023-12-04T08:33:18;3.00;99.90
44271;DHT22;29963;44.594;11.368;2023-12-04T08:35:46;3.00;99.90
44271;DHT22;29963;44.594;11.368;2023-12-04T08:38:11;3.00;99.90
44271;DHT22;29963;44.594;11.368;2023-12-04T08:40:37;3.00;99.90
44271;DHT22;29963;44.594;11.368;2023-12-04T08:43:03;3.00;99.90
44271;DHT22;29963;44.594;11.368;2023-12-04T08:45:29;3.00;99.90
44271;DHT22;29963;44.594;11.368;2023-12-04T08:47:55;3.00;99.90
44271;DHT22;29963;44.594;11.368;2023-12-04T08:50:21;3.00;99.90
44271;DHT22;29963;44.594;11.368;2023-12-04T08:52:47;3.00;99.90
44271;DHT22;29963;44.594;11.368;2023-12-04T08:55:12;3.00;99.90
44271;DHT22;29963;44.594;11.368;2023-12-04T08:57:38;2.90;99.90
44271;DHT22;29963;44.594;11.368;2023-12-04T09:00:04;2.90;99.90
44271;DHT22;29963;44.594;11.368;2023-12-04T09:02:30;3.00;99.90
44271;DHT22;29963;44.594;11.368;2023-12-04T09:04:56;3.00;99.90
44271;DHT22;29963;44.594;11.368;2023-12-04T09:07:22;3.00;99.90
44271;DHT22;29963;44.594;11.368;2023-12-04T09:09:48;3.10;99.90
44271;DHT22;29963;44.594;11.368;2023-12-04T09:12:14;3.20;99.90
44271;DHT22;29963;44.594;11.368;2023-12-04T09:14:40;3.20;99.90
44271;DHT22;29963;44.594;11.368;2023-12-04T09:17:05;3.20;99.90
44271;DHT22;29963;44.594;11.368;2023-12-04T09:19:32;3.20;99.90
44271;DHT22;29963;44.594;11.368;2023-12-04T09:21:57;3.10;99.90
44271;DHT22;29963;44.594;11.368;2023-12-04T09:24:23;3.20;99.90
44271;DHT22;29963;44.594;11.368;2023-12-04T09:26:49;3.30;99.90
44271;DHT22;29963;44.594;11.368;2023-12-04T09:29:15;3.40;99.90
44271;DHT22;29963;44.594;11.368;2023-12-04T09:31:41;3.40;99.90
44271;DHT22;29963;44.594;11.368;2023-12-04T09:34:09;3.40;99.90
44271;DHT22;29963;44.594;11.368;2023-12-04T09:36:35;3.50;99.90
44271;DHT22;29963;44.594;11.368;2023-12-04T09:39:01;3.50;99.90
44271;DHT22;29963;44.594;11.368;2023-12-04T09:41:27;3.60;99.90
44271;DHT22;29963;44.594;11.368;2023-12-04T09:43:53;3.70;99.90
44271;DHT22;29963;44.594;11.368;2023-12-04T09:46:19;3.80;99.90
44271;DHT22;29963;44.594;11.368;2023-12-04T09:48:45;3.90;99.90
44271;DHT22;29963;44.594;11.368;2023-12-04T09:51:12;3.90;99.90
44271;DHT22;29963;44.594;11.368;2023-12-04T09:53:40;4.00;99.90
44271;DHT22;29963;44.594;11.368;2023-12-04T09:56:08;4.00;99.90
44271;DHT22;29963;44.594;11.368;2023-12-04T09:58:38;4.00;99.90
44271;DHT22;29963;44.594;11.368;2023-12-04T10:01:05;4.20;99.90
44271;DHT22;29963;44.594;11.368;2023-12-04T10:03:32;4.30;99.90
44271;DHT22;29963;44.594;11.368;2023-12-04T10:05:58;4.50;99.90
44271;DHT22;29963;44.594;11.368;2023-12-04T10:08:24;5.10;99.90
44271;DHT22;29963;44.594;11.368;2023-12-04T10:10:50;4.80;99.90
44271;DHT22;29963;44.594;11.368;2023-12-04T10:13:16;4.90;99.90
44271;DHT22;29963;44.594;11.368;2023-12-04T10:15:49;5.10;99.90
44271;DHT22;29963;44.594;11.368;2023-12-04T10:18:28;5.10;99.90
44271;DHT22;29963;44.594;11.368;2023-12-04T10:20:58;5.30;99.90
44271;DHT22;29963;44.594;11.368;2023-12-04T10:23:40;5.30;99.90
44271;DHT22;29963;44.594;11.368;2023-12-04T10:26:07;5.40;99.90
44271;DHT22;29963;44.594;11.368;2023-12-04T10:28:33;5.50;99.90
44271;DHT22;29963;44.594;11.368;2023-12-04T10:30:59;5.50;99.90
44271;DHT22;29963;44.594;11.368;2023-12-04T10:33:25;5.50;99.90
44271;DHT22;29963;44.594;11.368;2023-12-04T10:35:52;5.50;99.90
44271;DHT22;29963;44.594;11.368;2023-12-04T10:38:18;5.50;99.90
44271;DHT22;29963;44.594;11.368;2023-12-04T10:40:44;5.50;99.90
44271;DHT22;29963;44.594;11.368;2023-12-04T10:43:23;5.50;99.90
44271;DHT22;29963;44.594;11.368;2023-12-04T10:45:50;5.40;99.90
44271;DHT22;29963;44.594;11.368;2023-12-04T10:48:18;5.40;99.90
44271;DHT22;29963;44.594;11.368;2023-12-04T10:50:48;5.30;99.90
44271;DHT22;29963;44.594;11.368;2023-12-04T10:53:15;5.40;99.90
44271;DHT22;29963;44.594;11.368;2023-12-04T10:55:42;5.30;99.90
44271;DHT22;29963;44.594;11.368;2023-12-04T10:58:14;5.30;99.90
44271;DHT22;29963;44.594;11.368;2023-12-04T11:00:43;5.10;99.90
44271;DHT22;29963;44.594;11.368;2023-12-04T11:03:24;4.90;99.90
44271;DHT22;29963;44.594;11.368;2023-12-04T11:06:00;4.60;99.90
44271;DHT22;29963;44.594;11.368;2023-12-04T11:08:33;4.50;99.90
44271;DHT22;29963;44.594;11.368;2023-12-04T11:11:02;4.60;99.90
44271;DHT22;29963;44.594;11.368;2023-12-04T11:13:37;4.60;99.90
44271;DHT22;29963;44.594;11.368;2023-12-04T11:16:15;4.70;99.90
44271;DHT22;29963;44.594;11.368;2023-12-04T11:18:44;4.70;99.90
44271;DHT22;29963;44.594;11.368;2023-12-04T11:21:13;4.80;99.90
44271;DHT22;29963;44.594;11.368;2023-12-04T11:23:41;4.90;99.90
44271;DHT22;29963;44.594;11.368;2023-12-04T11:26:08;4.90;99.90
44271;DHT22;29963;44.594;11.368;2023-12-04T11:28:34;4.80;99.90
44271;DHT22;29963;44.594;11.368;2023-12-04T11:31:02;4.80;99.90
44271;DHT22;29963;44.594;11.368;2023-12-04T11:33:27;4.80;99.90
44271;DHT22;29963;44.594;11.368;2023-12-04T11:36:06;4.80;99.90
44271;DHT22;29963;44.594;11.368;2023-12-04T11:38:36;4.80;99.90
44271;DHT22;29963;44.594;11.368;2023-12-04T11:41:17;4.80;99.90
44271;DHT22;29963;44.594;11.368;2023-12-04T11:43:45;4.90;99.90
44271;DHT22;29963;44.594;11.368;2023-12-04T11:46:12;4.90;99.90
44271;DHT22;29963;44.594;11.368;2023-12-04T11:48:39;4.90;99.90
44271;DHT22;29963;44.594;11.368;2023-12-04T11:51:08;5.00;99.90
44271;DHT22;29963;44.594;11.368;2023-12-04T11:53:40;4.80;99.90
44271;DHT22;29963;44.594;11.368;2023-12-04T11:56:12;4.80;99.90
44271;DHT22;29963;44.594;11.368;2023-12-04T11:58:45;4.80;99.90
44271;DHT22;29963;44.594;11.368;2023-12-04T12:01:11;4.90;99.90
44271;DHT22;29963;44.594;11.368;2023-12-04T12:03:37;4.90;99.90
44271;DHT22;29963;44.594;11.368;2023-12-04T12:06:03;4.90;99.90
44271;DHT22;29963;44.594;11.368;2023-12-04T12:08:29;5.00;99.90
44271;DHT22;29963;44.594;11.368;2023-12-04T12:10:56;5.10;99.90
44271;DHT22;29963;44.594;11.368;2023-12-04T12:13:23;5.20;99.90
44271;DHT22;29963;44.594;11.368;2023-12-04T12:15:51;5.30;99.90
44271;DHT22;29963;44.594;11.368;2023-12-04T12:18:18;5.40;99.90
44271;DHT22;29963;44.594;11.368;2023-12-04T12:20:44;5.40;99.90
44271;DHT22;29963;44.594;11.368;2023-12-04T12:23:09;5.40;99.90
44271;DHT22;29963;44.594;11.368;2023-12-04T12:25:36;5.40;99.90
44271;DHT22;29963;44.594;11.368;2023-12-04T12:28:07;5.30;99.90
44271;DHT22;29963;44.594;11.368;2023-12-04T12:30:33;5.20;99.90
44271;DHT22;29963;44.594;11.368;2023-12-04T12:32:59;5.10;99.90
44271;DHT22;29963;44.594;11.368;2023-12-04T12:35:25;5.10;99.90
44271;DHT22;29963;44.594;11.368;2023-12-04T12:37:50;5.10;99.90
44271;DHT22;29963;44.594;11.368;2023-12-04T12:40:21;5.10;99.90
44271;DHT22;29963;44.594;11.368;2023-12-04T12:42:47;5.10;99.90
44271;DHT22;29963;44.594;11.368;2023-12-04T12:45:14;5.10;99.90
44271;DHT22;29963;44.594;11.368;2023-12-04T12:47:43;5.20;99.90
44271;DHT22;29963;44.594;11.368;2023-12-04T12:50:09;5.20;99.90
44271;DHT22;29963;44.594;11.368;2023-12-04T12:52:39;5.10;99.90
44271;DHT22;29963;44.594;11.368;2023-12-04T12:55:04;5.10;99.90
44271;DHT22;29963;44.594;11.368;2023-12-04T12:57:30;5.20;99.90
44271;DHT22;29963;44.594;11.368;2023-12-04T12:59:56;5.20;99.90
44271;DHT22;29963;44.594;11.368;2023-12-04T13:02:22;5.20;99.90
44271;DHT22;29963;44.594;11.368;2023-12-04T13:04:48;5.30;99.90
44271;DHT22;29963;44.594;11.368;2023-12-04T13:07:13;5.30;99.90
44271;DHT22;29963;44.594;11.368;2023-12-04T13:09:39;5.40;99.90
44271;DHT22;29963;44.594;11.368;2023-12-04T13:12:06;5.30;99.90
44271;DHT22;29963;44.594;11.368;2023-12-04T13:14:34;5.30;99.90
44271;DHT22;29963;44.594;11.368;2023-12-04T13:17:03;5.40;99.90
44271;DHT22;29963;44.594;11.368;2023-12-04T13:19:29;5.30;99.90
44271;DHT22;29963;44.594;11.368;2023-12-04T13:21:57;5.30;99.90
44271;DHT22;29963;44.594;11.368;2023-12-04T13:24:26;5.30;99.90
44271;DHT22;29963;44.594;11.368;2023-12-04T13:26:51;5.30;99.90
44271;DHT22;29963;44.594;11.368;2023-12-04T13:29:17;5.20;99.90
44271;DHT22;29963;44.594;11.368;2023-12-04T13:31:44;5.20;99.90
44271;DHT22;29963;44.594;11.368;2023-12-04T13:34:12;5.10;99.90
44271;DHT22;29963;44.594;11.368;2023-12-04T13:36:37;5.00;99.90
44271;DHT22;29963;44.594;11.368;2023-12-04T13:39:03;5.00;99.90
44271;DHT22;29963;44.594;11.368;2023-12-04T13:41:42;5.00;99.90
44271;DHT22;29963;44.594;11.368;2023-12-04T13:44:27;5.00;99.90
44271;DHT22;29963;44.594;11.368;2023-12-04T13:46:52;5.00;99.90
44271;DHT22;29963;44.594;11.368;2023-12-04T13:49:18;5.00;99.90
44271;DHT22;29963;44.594;11.368;2023-12-04T13:51:45;5.00;99.90
44271;DHT22;29963;44.594;11.368;2023-12-04T13:54:11;5.00;99.90
44271;DHT22;29963;44.594;11.368;2023-12-04T13:56:59;5.00;99.90
44271;DHT22;29963;44.594;11.368;2023-12-04T13:59:28;5.00;99.90
44271;DHT22;29963;44.594;11.368;2023-12-04T14:01:57;5.00;99.90
44271;DHT22;29963;44.594;11.368;2023-12-04T14:04:25;5.00;99.90
44271;DHT22;29963;44.594;11.368;2023-12-04T14:06:51;4.90;99.90
44271;DHT22;29963;44.594;11.368;2023-12-04T14:09:17;4.90;99.90
44271;DHT22;29963;44.594;11.368;2023-12-04T14:11:43;4.90;99.90
44271;DHT22;29963;44.594;11.368;2023-12-04T14:14:10;4.90;99.90
44271;DHT22;29963;44.594;11.368;2023-12-04T14:16:36;4.90;99.90
44271;DHT22;29963;44.594;11.368;2023-12-04T14:19:01;5.00;99.90
44271;DHT22;29963;44.594;11.368;2023-12-04T14:21:28;5.10;99.90
44271;DHT22;29963;44.594;11.368;2023-12-04T14:23:53;5.20;99.90
44271;DHT22;29963;44.594;11.368;2023-12-04T14:26:19;5.20;99.90
44271;DHT22;29963;44.594;11.368;2023-12-04T14:28:45;5.20;99.90
44271;DHT22;29963;44.594;11.368;2023-12-04T14:31:11;5.30;99.90
44271;DHT22;29963;44.594;11.368;2023-12-04T14:33:36;5.20;99.90
44271;DHT22;29963;44.594;11.368;2023-12-04T14:36:03;5.30;99.90
44271;DHT22;29963;44.594;11.368;2023-12-04T14:38:29;5.30;99.90
44271;DHT22;29963;44.594;11.368;2023-12-04T14:40:55;5.30;99.90
44271;DHT22;29963;44.594;11.368;2023-12-04T14:43:21;5.30;99.90
44271;DHT22;29963;44.594;11.368;2023-12-04T14:45:46;5.30;99.90
44271;DHT22;29963;44.594;11.368;2023-12-04T14:48:13;5.30;99.90
44271;DHT22;29963;44.594;11.368;2023-12-04T14:50:38;5.10;99.90
44271;DHT22;29963;44.594;11.368;2023-12-04T14:53:04;5.20;99.90
44271;DHT22;29963;44.594;11.368;2023-12-04T14:55:49;5.10;99.90
44271;DHT22;29963;44.594;11.368;2023-12-04T14:58:33;5.10;99.90
44271;DHT22;29963;44.594;11.368;2023-12-04T15:00:59;5.10;99.90
44271;DHT22;29963;44.594;11.368;2023-12-04T15:03:43;5.10;99.90
44271;DHT22;29963;44.594;11.368;2023-12-04T15:06:26;5.10;99.90
44271;DHT22;29963;44.594;11.368;2023-12-04T15:09:11;5.10;99.90
44271;DHT22;29963;44.594;11.368;2023-12-04T15:11:55;5.10;99.90
44271;DHT22;29963;44.594;11.368;2023-12-04T15:14:39;5.10;99.90
44271;DHT22;29963;44.594;11.368;2023-12-04T15:17:35;5.10;99.90
44271;DHT22;29963;44.594;11.368;2023-12-04T15:20:14;5.00;99.90
44271;DHT22;29963;44.594;11.368;2023-12-04T15:22:39;4.90;99.90
44271;DHT22;29963;44.594;11.368;2023-12-04T15:25:05;4.80;99.90
44271;DHT22;29963;44.594;11.368;2023-12-04T15:27:37;4.70;99.90
44271;DHT22;29963;44.594;11.368;2023-12-04T15:30:03;4.70;99.90
44271;DHT22;29963;44.594;11.368;2023-12-04T15:32:30;4.60;99.90
44271;DHT22;29963;44.594;11.368;2023-12-04T15:34:58;4.50;99.90
44271;DHT22;29963;44.594;11.368;2023-12-04T15:37:24;4.50;99.90